createdAt,value
2018-06-05T00:00:33.182Z,18.2
2018-06-05T00:01:41.099Z,18.2
2018-06-05T00:02:49.311Z,18.1
2018-06-05T00:03:57.518Z,18.2
2018-06-05T00:05:05.450Z,18.1
2018-06-05T00:06:13.654Z,18.1
2018-06-05T00:07:21.863Z,18.1
2018-06-05T00:08:28.942Z,18.1
2018-06-05T00:09:37.146Z,18.1
2018-06-05T00:10:45.358Z,18.1
2018-06-05T00:11:53.561Z,18.1
2018-06-05T00:13:01.768Z,18.1
2018-06-05T00:14:09.972Z,18.1
2018-06-05T00:15:18.176Z,18.1
2018-06-05T00:16:26.384Z,18.1
2018-06-05T00:17:34.584Z,18
2018-06-05T00:18:42.786Z,18
2018-06-05T00:19:50.987Z,18
2018-06-05T00:20:59.190Z,18
2018-06-05T00:22:07.388Z,18
2018-06-05T00:23:15.590Z,18
2018-06-05T00:24:23.523Z,18
2018-06-05T00:25:31.453Z,18
2018-06-05T00:26:39.664Z,18
2018-06-05T00:27:47.866Z,18
2018-06-05T00:28:55.798Z,18
2018-06-05T00:30:04.000Z,18
2018-06-05T00:31:12.206Z,18
2018-06-05T00:32:20.409Z,18
2018-06-05T00:33:28.610Z,17.9
2018-06-05T00:34:36.812Z,17.9
2018-06-05T00:35:45.014Z,17.9
2018-06-05T00:36:53.257Z,17.9
2018-06-05T00:38:01.457Z,17.9
2018-06-05T00:39:09.665Z,17.9
2018-06-05T00:40:17.873Z,17.8
2018-06-05T00:41:26.063Z,17.8
2018-06-05T00:42:34.266Z,17.8
2018-06-05T00:43:42.468Z,17.7
2018-06-05T00:44:50.671Z,17.8
2018-06-05T00:45:58.872Z,17.8
2018-06-05T00:47:07.069Z,17.8
2018-06-05T00:48:15.292Z,17.8
2018-06-05T00:49:23.498Z,17.7
2018-06-05T00:50:31.718Z,17.7
2018-06-05T00:51:39.641Z,17.7
2018-06-05T00:52:47.575Z,17.7
2018-06-05T00:53:55.779Z,17.7
2018-06-05T00:55:03.980Z,17.7
2018-06-05T00:56:12.189Z,17.7
2018-06-05T00:57:20.110Z,17.6
2018-06-05T00:58:28.310Z,17.6
2018-06-05T00:59:36.510Z,17.6
2018-06-05T01:00:44.711Z,17.6
2018-06-05T01:01:52.912Z,17.6
2018-06-05T01:03:01.118Z,17.6
2018-06-05T01:04:09.324Z,17.6
2018-06-05T01:05:17.526Z,17.6
2018-06-05T01:06:25.730Z,17.5
2018-06-05T01:07:33.947Z,17.5
2018-06-05T01:08:42.144Z,17.5
2018-06-05T01:09:50.351Z,17.5
2018-06-05T01:10:58.551Z,17.5
2018-06-05T01:12:06.752Z,17.5
2018-06-05T01:13:14.679Z,17.5
2018-06-05T01:14:22.879Z,17.5
2018-06-05T01:15:31.093Z,17.5
2018-06-05T01:16:39.290Z,17.4
2018-06-05T01:17:47.489Z,17.4
2018-06-05T01:18:55.689Z,17.4
2018-06-05T01:20:03.890Z,17.4
2018-06-05T01:21:12.095Z,17.4
2018-06-05T01:22:20.299Z,17.4
2018-06-05T01:23:28.499Z,17.4
2018-06-05T01:24:36.715Z,17.4
2018-06-05T01:25:44.644Z,17.4
2018-06-05T01:26:52.844Z,17.4
2018-06-05T01:28:01.049Z,17.4
2018-06-05T01:29:09.240Z,17.4
2018-06-05T01:30:17.167Z,17.4
2018-06-05T01:31:25.371Z,17.4
2018-06-05T01:32:33.570Z,17.3
2018-06-05T01:33:41.771Z,17.3
2018-06-05T01:34:49.690Z,17.3
2018-06-05T01:35:57.628Z,17.3
2018-06-05T01:37:05.278Z,17.3
2018-06-05T01:38:13.206Z,17.3
2018-06-05T01:39:20.582Z,17.3
2018-06-05T01:40:28.560Z,17.3
2018-06-05T01:41:36.760Z,17.3
2018-06-05T01:42:44.963Z,17.2
2018-06-05T01:43:52.888Z,17.2
2018-06-05T01:45:00.831Z,17.2
2018-06-05T01:46:08.744Z,17.2
2018-06-05T01:47:16.948Z,17.2
2018-06-05T01:48:24.887Z,17.1
2018-06-05T01:49:33.090Z,17.1
2018-06-05T01:50:41.296Z,17.1
2018-06-05T01:51:49.503Z,17.1
2018-06-05T01:52:57.702Z,17.1
2018-06-05T01:54:05.908Z,17
2018-06-05T01:55:14.113Z,17.1
2018-06-05T01:56:22.312Z,17.1
2018-06-05T01:57:30.512Z,17.1
2018-06-05T01:58:38.715Z,17
2018-06-05T01:59:46.914Z,17
2018-06-05T02:00:55.114Z,17
2018-06-05T02:02:03.314Z,17
2018-06-05T02:03:11.240Z,17
2018-06-05T02:04:19.444Z,17
2018-06-05T02:05:27.648Z,17
2018-06-05T02:06:35.854Z,17
2018-06-05T02:07:44.060Z,17
2018-06-05T02:08:52.265Z,16.9
2018-06-05T02:10:00.465Z,16.9
2018-06-05T02:11:08.665Z,16.9
2018-06-05T02:12:16.590Z,16.9
2018-06-05T02:13:24.517Z,16.9
2018-06-05T02:14:32.719Z,16.9
2018-06-05T02:15:40.368Z,16.9
2018-06-05T02:16:48.022Z,16.9
2018-06-05T02:17:56.231Z,16.8
2018-06-05T02:19:04.432Z,16.8
2018-06-05T02:20:12.647Z,16.8
2018-06-05T02:21:20.846Z,16.8
2018-06-05T02:22:29.058Z,16.9
2018-06-05T02:23:37.258Z,16.8
2018-06-05T02:24:45.459Z,16.8
2018-06-05T02:25:53.677Z,16.8
2018-06-05T02:27:01.600Z,16.8
2018-06-05T02:28:09.803Z,16.8
2018-06-05T02:29:18.005Z,16.8
2018-06-05T02:30:26.207Z,16.8
2018-06-05T02:31:34.406Z,16.8
2018-06-05T02:32:42.606Z,16.8
2018-06-05T02:33:50.818Z,16.8
2018-06-05T02:34:59.017Z,16.7
2018-06-05T02:36:07.221Z,16.7
2018-06-05T02:37:15.418Z,16.7
2018-06-05T02:38:23.615Z,16.7
2018-06-05T02:39:31.815Z,16.7
2018-06-05T02:40:40.015Z,16.7
2018-06-05T02:41:48.222Z,16.7
2018-06-05T02:42:56.430Z,16.7
2018-06-05T02:44:04.635Z,16.7
2018-06-05T02:45:12.828Z,16.7
2018-06-05T02:46:21.036Z,16.6
2018-06-05T02:47:29.231Z,16.6
2018-06-05T02:48:37.442Z,16.6
2018-06-05T02:49:45.647Z,16.6
2018-06-05T02:50:52.602Z,16.6
2018-06-05T02:52:00.800Z,16.6
2018-06-05T02:53:09.002Z,16.6
2018-06-05T02:54:17.210Z,16.6
2018-06-05T02:55:25.408Z,16.6
2018-06-05T02:56:33.605Z,16.6
2018-06-05T02:57:41.808Z,16.6
2018-06-05T02:58:50.013Z,16.6
2018-06-05T02:59:57.952Z,16.5
2018-06-05T03:01:06.155Z,16.5
2018-06-05T03:02:14.359Z,16.5
2018-06-05T03:03:22.557Z,16.6
2018-06-05T03:04:30.758Z,16.5
2018-06-05T03:05:38.958Z,16.5
2018-06-05T03:06:46.863Z,16.5
2018-06-05T03:07:55.064Z,16.4
2018-06-05T03:09:02.998Z,16.4
2018-06-05T03:10:10.937Z,16.4
2018-06-05T03:11:19.141Z,16.4
2018-06-05T03:12:27.337Z,16.4
2018-06-05T03:13:35.543Z,16.4
2018-06-05T03:14:43.483Z,16.3
2018-06-05T03:15:51.689Z,16.4
2018-06-05T03:16:59.902Z,16.3
2018-06-05T03:18:08.101Z,16.3
2018-06-05T03:19:16.308Z,16.3
2018-06-05T03:20:24.509Z,16.4
2018-06-05T03:21:32.710Z,16.4
2018-06-05T03:22:40.907Z,16.4
2018-06-05T03:23:49.236Z,16.4
2018-06-05T03:24:57.201Z,16.4
2018-06-05T03:26:05.131Z,16.4
2018-06-05T03:27:12.359Z,16.3
2018-06-05T03:28:20.555Z,16.3
2018-06-05T03:29:28.482Z,16.4
2018-06-05T03:30:36.689Z,16.3
2018-06-05T03:31:44.888Z,16.3
2018-06-05T03:32:53.094Z,16.3
2018-06-05T03:34:01.086Z,16.4
2018-06-05T03:35:09.348Z,16.3
2018-06-05T03:36:16.680Z,16.3
2018-06-05T03:37:23.931Z,16.3
2018-06-05T03:38:32.131Z,16.3
2018-06-05T03:39:39.359Z,16.3
2018-06-05T03:40:47.290Z,16.3
2018-06-05T03:41:55.818Z,16.3
2018-06-05T03:43:03.090Z,16.3
2018-06-05T03:44:11.292Z,16.3
2018-06-05T03:45:19.490Z,16.3
2018-06-05T03:46:27.690Z,16.3
2018-06-05T03:47:35.892Z,16.3
2018-06-05T03:48:44.104Z,16.3
2018-06-05T03:49:52.319Z,16.3
2018-06-05T03:51:00.519Z,16.3
2018-06-05T03:52:08.726Z,16.3
2018-06-05T03:53:15.962Z,16.3
2018-06-05T03:54:24.162Z,16.3
2018-06-05T03:55:32.365Z,16.3
2018-06-05T03:56:40.482Z,16.4
2018-06-05T03:57:47.986Z,16.4
2018-06-05T03:58:56.186Z,16.4
2018-06-05T04:00:04.389Z,16.4
2018-06-05T04:01:12.587Z,16.4
2018-06-05T04:02:20.789Z,16.4
2018-06-05T04:03:29.002Z,16.4
2018-06-05T04:04:37.195Z,16.4
2018-06-05T04:05:44.433Z,16.4
2018-06-05T04:06:52.636Z,16.4
2018-06-05T04:08:00.834Z,16.5
2018-06-05T04:09:08.065Z,16.4
2018-06-05T04:10:16.171Z,16.5
2018-06-05T04:11:23.895Z,16.5
2018-06-05T04:12:32.095Z,16.5
2018-06-05T04:13:40.296Z,16.5
2018-06-05T04:14:48.496Z,16.5
2018-06-05T04:15:56.698Z,16.5
2018-06-05T04:17:04.899Z,16.5
2018-06-05T04:18:13.108Z,16.6
2018-06-05T04:19:21.346Z,16.6
2018-06-05T04:20:29.548Z,16.6
2018-06-05T04:21:37.741Z,16.6
2018-06-05T04:22:45.671Z,16.7
2018-06-05T04:23:53.867Z,16.7
2018-06-05T04:25:02.070Z,16.7
2018-06-05T04:26:09.998Z,16.7
2018-06-05T04:27:17.918Z,16.8
2018-06-05T04:28:25.842Z,16.8
2018-06-05T04:29:33.766Z,16.8
2018-06-05T04:30:41.701Z,16.9
2018-06-05T04:31:49.358Z,16.9
2018-06-05T04:32:57.599Z,16.9
2018-06-05T04:34:05.524Z,16.9
2018-06-05T04:35:13.734Z,16.9
2018-06-05T04:36:20.964Z,17
2018-06-05T04:37:28.882Z,17
2018-06-05T04:38:36.340Z,17
2018-06-05T04:39:44.540Z,17
2018-06-05T04:40:52.743Z,17.1
2018-06-05T04:42:00.669Z,17.1
2018-06-05T04:43:08.595Z,17.1
2018-06-05T04:44:16.795Z,17.2
2018-06-05T04:45:24.993Z,17.2
2018-06-05T04:46:33.197Z,17.2
2018-06-05T04:47:41.428Z,17.2
2018-06-05T04:48:48.432Z,17.2
2018-06-05T04:49:56.631Z,17.3
2018-06-05T04:51:04.570Z,17.3
2018-06-05T04:52:12.762Z,17.4
2018-06-05T04:53:20.965Z,17.4
2018-06-05T04:54:29.164Z,17.4
2018-06-05T04:55:37.375Z,17.4
2018-06-05T04:56:45.574Z,17.5
2018-06-05T04:57:53.770Z,17.5
2018-06-05T04:59:01.976Z,17.5
2018-06-05T05:00:09.898Z,17.5
2018-06-05T05:01:18.105Z,17.5
2018-06-05T05:02:26.301Z,17.6
2018-06-05T05:03:34.234Z,17.7
2018-06-05T05:04:42.429Z,17.7
2018-06-05T05:05:50.640Z,17.7
2018-06-05T05:06:57.869Z,17.8
2018-06-05T05:08:06.068Z,17.8
2018-06-05T05:09:13.036Z,17.8
2018-06-05T05:10:20.961Z,17.8
2018-06-05T05:11:29.162Z,17.9
2018-06-05T05:12:36.387Z,17.9
2018-06-05T05:13:44.592Z,18
2018-06-05T05:14:52.793Z,18
2018-06-05T05:16:00.997Z,18.1
2018-06-05T05:17:07.974Z,18.1
2018-06-05T05:18:15.904Z,18.2
2018-06-05T05:19:24.105Z,18.3
2018-06-05T05:20:32.315Z,18.4
2018-06-05T05:21:40.512Z,18.4
2018-06-05T05:22:48.729Z,18.5
2018-06-05T05:23:56.921Z,18.6
2018-06-05T05:25:05.142Z,18.7
2018-06-05T05:26:12.388Z,18.8
2018-06-05T05:27:20.595Z,18.8
2018-06-05T05:28:28.807Z,18.9
2018-06-05T05:29:37.016Z,18.9
2018-06-05T05:30:44.257Z,19
2018-06-05T05:31:52.466Z,19.1
2018-06-05T05:33:00.664Z,19.1
2018-06-05T05:34:07.891Z,19.3
2018-06-05T05:35:16.091Z,19.4
2018-06-05T05:36:23.372Z,19.5
2018-06-05T05:37:31.574Z,19.6
2018-06-05T05:38:38.810Z,19.6
2018-06-05T05:39:46.040Z,19.8
2018-06-05T05:40:53.292Z,19.9
2018-06-05T05:42:01.496Z,20
2018-06-05T05:43:08.735Z,20.1
2018-06-05T05:44:16.934Z,20.2
2018-06-05T05:45:25.153Z,20.2
2018-06-05T05:46:32.369Z,20.3
2018-06-05T05:47:40.577Z,20.5
2018-06-05T05:48:48.777Z,20.5
2018-06-05T05:49:56.022Z,20.5
2018-06-05T05:51:04.220Z,20.6
2018-06-05T05:52:12.424Z,20.8
2018-06-05T05:53:19.661Z,21.1
2018-06-05T05:54:27.125Z,21.2
2018-06-05T05:55:35.329Z,21.1
2018-06-05T05:56:44.132Z,21.1
2018-06-05T05:57:52.058Z,21.2
2018-06-05T05:59:00.259Z,21.2
2018-06-05T06:00:08.465Z,21.3
2018-06-05T06:01:16.663Z,21.5
2018-06-05T06:02:24.865Z,21.7
2018-06-05T06:03:33.068Z,22
2018-06-05T06:04:41.000Z,22.1
2018-06-05T06:05:49.210Z,22
2018-06-05T06:06:57.407Z,21.8
2018-06-05T06:08:05.611Z,21.7
2018-06-05T06:09:13.816Z,21.8
2018-06-05T06:10:21.047Z,22
2018-06-05T06:11:29.259Z,22.3
2018-06-05T06:12:37.461Z,22.5
2018-06-05T06:13:45.673Z,22.7
2018-06-05T06:14:53.899Z,22.9
2018-06-05T06:16:02.106Z,23
2018-06-05T06:17:10.306Z,22.8
2018-06-05T06:18:18.511Z,22.7
2018-06-05T06:19:26.445Z,22.6
2018-06-05T06:20:34.651Z,22.5
2018-06-05T06:21:42.854Z,22.4
2018-06-05T06:22:51.061Z,22.2
2018-06-05T06:23:59.263Z,22.3
2018-06-05T06:25:07.486Z,22.6
2018-06-05T06:26:15.698Z,22.8
2018-06-05T06:27:23.901Z,23
2018-06-05T06:28:32.107Z,23
2018-06-05T06:29:40.313Z,23.1
2018-06-05T06:30:48.514Z,23.3
2018-06-05T06:31:56.718Z,23.5
2018-06-05T06:33:04.926Z,23.5
2018-06-05T06:34:13.127Z,23.5
2018-06-05T06:35:21.331Z,23.5
2018-06-05T06:36:29.536Z,23.5
2018-06-05T06:37:37.745Z,23.6
2018-06-05T06:38:45.952Z,23.5
2018-06-05T06:39:54.161Z,23.3
2018-06-05T06:41:02.362Z,23.2
2018-06-05T06:42:10.569Z,23.3
2018-06-05T06:43:18.771Z,23.6
2018-06-05T06:44:26.002Z,23.7
2018-06-05T06:45:34.207Z,23.8
2018-06-05T06:46:42.410Z,23.8
2018-06-05T06:47:49.647Z,24.1
2018-06-05T06:48:57.085Z,24.1
2018-06-05T06:50:05.602Z,24.2
2018-06-05T06:51:13.802Z,24.3
2018-06-05T06:52:22.009Z,24.1
2018-06-05T06:53:30.213Z,24.3
2018-06-05T06:54:37.547Z,24.6
2018-06-05T06:55:45.784Z,24.9
2018-06-05T06:56:53.991Z,25.2
2018-06-05T06:58:02.199Z,25.2
2018-06-05T06:59:10.404Z,24.7
2018-06-05T07:00:18.611Z,24.1
2018-06-05T07:01:26.817Z,23.9
2018-06-05T07:02:35.058Z,24.3
2018-06-05T07:03:42.997Z,24.3
2018-06-05T07:04:51.202Z,23.9
2018-06-05T07:05:58.465Z,23.9
2018-06-05T07:07:05.704Z,23.8
2018-06-05T07:08:13.917Z,23.9
2018-06-05T07:09:22.118Z,24.3
2018-06-05T07:10:30.323Z,24.4
2018-06-05T07:11:38.530Z,24.6
2018-06-05T07:12:46.459Z,24.9
2018-06-05T07:13:54.666Z,25.2
2018-06-05T07:15:02.868Z,25.6
2018-06-05T07:16:10.109Z,25.5
2018-06-05T07:17:17.994Z,25.7
2018-06-05T07:18:26.200Z,25.5
2018-06-05T07:19:33.444Z,25.4
2018-06-05T07:20:41.648Z,25.4
2018-06-05T07:21:49.586Z,25.6
2018-06-05T07:22:57.790Z,25.7
2018-06-05T07:24:06.133Z,26.1
2018-06-05T07:25:14.518Z,26.1
2018-06-05T07:26:22.726Z,26.1
2018-06-05T07:27:30.932Z,26.2
2018-06-05T07:28:39.147Z,26.2
2018-06-05T07:29:47.348Z,26.2
2018-06-05T07:30:55.285Z,26.1
2018-06-05T07:32:03.494Z,26.1
2018-06-05T07:33:11.705Z,25.9
2018-06-05T07:34:19.911Z,26.1
2018-06-05T07:35:28.121Z,26.2
2018-06-05T07:36:36.329Z,26.4
2018-06-05T07:37:44.537Z,26.1
2018-06-05T07:38:52.961Z,25.3
2018-06-05T07:40:00.895Z,25.2
2018-06-05T07:41:09.122Z,25.4
2018-06-05T07:42:17.329Z,25.6
2018-06-05T07:43:25.264Z,25.7
2018-06-05T07:44:33.469Z,25.6
2018-06-05T07:45:41.083Z,25.2
2018-06-05T07:46:49.294Z,25.3
2018-06-05T07:47:57.533Z,25.7
2018-06-05T07:49:05.738Z,26.3
2018-06-05T07:50:12.974Z,26.7
2018-06-05T07:51:21.182Z,26.5
2018-06-05T07:52:29.112Z,26.1
2018-06-05T07:53:37.315Z,26.4
2018-06-05T07:54:44.624Z,26.6
2018-06-05T07:55:52.827Z,26.8
2018-06-05T07:57:01.035Z,26.6
2018-06-05T07:58:09.246Z,26.2
2018-06-05T07:59:17.457Z,26.1
2018-06-05T08:00:25.667Z,26.2
2018-06-05T08:01:33.869Z,26.4
2018-06-05T08:02:42.078Z,26.3
2018-06-05T08:03:50.025Z,26.7
2018-06-05T08:04:58.232Z,27
2018-06-05T08:06:06.438Z,27.4
2018-06-05T08:07:14.644Z,27.8
2018-06-05T08:08:22.850Z,27.7
2018-06-05T08:09:31.055Z,27.2
2018-06-05T08:10:38.989Z,27.1
2018-06-05T08:11:47.236Z,27.4
2018-06-05T08:12:55.470Z,27.6
2018-06-05T08:14:03.684Z,27.8
2018-06-05T08:15:11.889Z,27.8
2018-06-05T08:16:20.094Z,27.7
2018-06-05T08:17:28.307Z,27.7
2018-06-05T08:18:36.244Z,27.8
2018-06-05T08:19:44.455Z,27.8
2018-06-05T08:20:52.655Z,27.7
2018-06-05T08:22:00.864Z,27.5
2018-06-05T08:23:08.107Z,27.7
2018-06-05T08:24:16.321Z,27.7
2018-06-05T08:25:24.527Z,27.7
2018-06-05T08:26:32.770Z,27.5
2018-06-05T08:27:40.980Z,27.9
2018-06-05T08:28:48.211Z,28.2
2018-06-05T08:29:56.415Z,28.4
2018-06-05T08:31:04.626Z,28.5
2018-06-05T08:32:12.858Z,28.2
2018-06-05T08:33:21.071Z,27.9
2018-06-05T08:34:29.285Z,27.8
2018-06-05T08:35:37.496Z,28.2
2018-06-05T08:36:45.044Z,28.7
2018-06-05T08:37:53.338Z,29.1
2018-06-05T08:39:01.556Z,29.1
2018-06-05T08:40:09.769Z,29.1
2018-06-05T08:41:17.976Z,28.9
2018-06-05T08:42:26.188Z,29.1
2018-06-05T08:43:34.399Z,29.2
2018-06-05T08:44:42.328Z,29.3
2018-06-05T08:45:50.545Z,29.5
2018-06-05T08:46:57.500Z,29.4
2018-06-05T08:48:05.706Z,28.9
2018-06-05T08:49:13.914Z,29.2
2018-06-05T08:50:22.125Z,28.8
2018-06-05T08:51:30.333Z,29
2018-06-05T08:52:38.542Z,29.2
2018-06-05T08:53:46.752Z,29.1
2018-06-05T08:54:54.963Z,28.9
2018-06-05T08:56:03.173Z,29.1
2018-06-05T08:57:11.108Z,29.1
2018-06-05T08:58:19.316Z,28.3
2018-06-05T08:59:27.249Z,27.7
2018-06-05T09:00:35.494Z,28.2
2018-06-05T09:01:43.441Z,28.4
2018-06-05T09:02:51.652Z,28.7
2018-06-05T09:03:59.864Z,28.6
2018-06-05T09:05:08.161Z,28.9
2018-06-05T09:06:16.413Z,29.1
2018-06-05T09:07:24.620Z,29.7
2018-06-05T09:08:32.856Z,29.8
2018-06-05T09:09:41.063Z,30.2
2018-06-05T09:10:49.386Z,30.6
2018-06-05T09:11:57.762Z,30.6
2018-06-05T09:13:05.972Z,30.6
2018-06-05T09:14:14.180Z,30.7
2018-06-05T09:15:22.402Z,30.8
2018-06-05T09:16:30.630Z,30.6
2018-06-05T09:17:38.838Z,30.1
2018-06-05T09:18:47.045Z,30.2
2018-06-05T09:19:55.255Z,30.3
2018-06-05T09:21:03.462Z,30.1
2018-06-05T09:22:11.671Z,30.2
2018-06-05T09:23:19.620Z,30.6
2018-06-05T09:24:27.825Z,30.6
2018-06-05T09:25:36.033Z,30.9
2018-06-05T09:26:43.273Z,30.9
2018-06-05T09:27:51.489Z,30.5
2018-06-05T09:28:59.476Z,30.2
2018-06-05T09:30:07.429Z,30.4
2018-06-05T09:31:15.643Z,30.5
2018-06-05T09:32:22.903Z,29.5
2018-06-05T09:33:31.114Z,29.3
2018-06-05T09:34:39.338Z,29.5
2018-06-05T09:35:47.537Z,29.9
2018-06-05T09:36:55.738Z,30.4
2018-06-05T09:38:02.691Z,30.5
2018-06-05T09:39:09.929Z,30.4
2018-06-05T09:40:18.148Z,29.9
2018-06-05T09:41:26.352Z,30.1
2018-06-05T09:42:33.342Z,30.5
2018-06-05T09:43:40.580Z,30.8
2018-06-05T09:44:48.790Z,30.9
2018-06-05T09:45:57.001Z,30.8
2018-06-05T09:47:05.215Z,30.7
2018-06-05T09:48:13.425Z,30.6
2018-06-05T09:49:21.648Z,30.7
2018-06-05T09:50:28.886Z,30.9
2018-06-05T09:51:37.104Z,31.3
2018-06-05T09:52:45.316Z,31.6
2018-06-05T09:53:53.525Z,31.2
2018-06-05T09:55:00.795Z,31
2018-06-05T09:56:08.068Z,31.2
2018-06-05T09:57:16.278Z,31.2
2018-06-05T09:58:25.159Z,31.6
2018-06-05T09:59:34.073Z,31.5
2018-06-05T10:00:42.281Z,30.8
2018-06-05T10:01:50.493Z,30.7
2018-06-05T10:02:58.444Z,30.6
2018-06-05T10:04:06.225Z,31
2018-06-05T10:05:14.435Z,31.3
2018-06-05T10:06:22.650Z,31.1
2018-06-05T10:07:30.855Z,30.7
2018-06-05T10:08:38.521Z,31
2018-06-05T10:09:46.462Z,31.4
2018-06-05T10:10:54.672Z,31.8
2018-06-05T10:12:02.891Z,32.1
2018-06-05T10:13:11.102Z,32.2
2018-06-05T10:14:19.311Z,32.5
2018-06-05T10:15:27.521Z,32.7
2018-06-05T10:16:35.751Z,33
2018-06-05T10:17:43.965Z,33.1
2018-06-05T10:18:52.177Z,32.9
2018-06-05T10:20:00.391Z,31.6
2018-06-05T10:21:07.860Z,30.5
2018-06-05T10:22:16.074Z,30.2
2018-06-05T10:23:24.283Z,30.4
2018-06-05T10:24:32.495Z,30.5
2018-06-05T10:25:40.711Z,30.5
2018-06-05T10:26:48.920Z,30.9
2018-06-05T10:27:56.856Z,31.3
2018-06-05T10:29:04.794Z,32.2
2018-06-05T10:30:13.005Z,32.3
2018-06-05T10:31:21.220Z,32.2
2018-06-05T10:32:29.422Z,32.6
2018-06-05T10:33:37.631Z,33.1
2018-06-05T10:34:45.579Z,33.2
2018-06-05T10:35:53.846Z,33.2
2018-06-05T10:37:01.777Z,33.4
2018-06-05T10:38:09.716Z,33.7
2018-06-05T10:39:17.932Z,33.7
2018-06-05T10:40:25.871Z,34.1
2018-06-05T10:41:34.079Z,34.6
2018-06-05T10:42:42.304Z,34.4
2018-06-05T10:43:50.575Z,34.4
2018-06-05T10:44:58.788Z,34.2
2018-06-05T10:46:07.007Z,34.1
2018-06-05T10:47:15.221Z,34.5
2018-06-05T10:48:23.469Z,34.4
2018-06-05T10:49:31.101Z,33.6
2018-06-05T10:50:39.313Z,33.3
2018-06-05T10:51:47.530Z,33.3
2018-06-05T10:52:55.746Z,33.5
2018-06-05T10:54:03.962Z,33.7
2018-06-05T10:55:12.173Z,33.5
2018-06-05T10:56:20.599Z,33
2018-06-05T10:57:28.816Z,32.3
2018-06-05T10:58:36.745Z,31.4
2018-06-05T10:59:44.890Z,30.6
2018-06-05T11:00:53.106Z,30.7
2018-06-05T11:02:01.333Z,31.3
2018-06-05T11:03:09.550Z,31.7
2018-06-05T11:04:17.757Z,32.1
2018-06-05T11:05:25.970Z,32.4
2018-06-05T11:06:34.186Z,32.6
2018-06-05T11:07:42.399Z,32.7
2018-06-05T11:08:50.616Z,32.6
2018-06-05T11:09:58.876Z,32.1
2018-06-05T11:11:07.076Z,32
2018-06-05T11:12:15.287Z,31.8
2018-06-05T11:13:23.509Z,31.9
2018-06-05T11:14:31.723Z,32.5
2018-06-05T11:15:39.938Z,33.3
2018-06-05T11:16:48.152Z,33.9
2018-06-05T11:17:56.084Z,34.1
2018-06-05T11:19:04.210Z,34.5
2018-06-05T11:20:12.154Z,34.5
2018-06-05T11:21:20.373Z,34.3
2018-06-05T11:22:28.588Z,34.1
2018-06-05T11:23:36.808Z,33.4
2018-06-05T11:24:45.042Z,32.6
2018-06-05T11:25:53.256Z,32.3
2018-06-05T11:27:01.476Z,32.2
2018-06-05T11:28:09.687Z,32.3
2018-06-05T11:29:17.902Z,32.3
2018-06-05T11:30:26.141Z,32.5
2018-06-05T11:31:34.352Z,32.4
2018-06-05T11:32:42.575Z,32.2
2018-06-05T11:33:50.794Z,32.3
2018-06-05T11:34:59.005Z,32.7
2018-06-05T11:36:06.949Z,33
2018-06-05T11:37:14.194Z,33.3
2018-06-05T11:38:22.414Z,33.6
2018-06-05T11:39:30.216Z,33.8
2018-06-05T11:40:38.155Z,34.2
2018-06-05T11:41:46.369Z,33.9
2018-06-05T11:42:54.581Z,33.7
2018-06-05T11:44:02.790Z,32.6
2018-06-05T11:45:11.001Z,31.8
2018-06-05T11:46:19.210Z,31.3
2018-06-05T11:47:27.112Z,31.2
2018-06-05T11:48:35.326Z,31.3
2018-06-05T11:49:43.539Z,32
2018-06-05T11:50:51.747Z,32.6
2018-06-05T11:51:59.962Z,33
2018-06-05T11:53:07.899Z,33.5
2018-06-05T11:54:16.235Z,34
2018-06-05T11:55:24.590Z,34.1
2018-06-05T11:56:32.810Z,34.4
2018-06-05T11:57:40.076Z,34.6
2018-06-05T11:58:48.292Z,34.9
2018-06-05T11:59:56.510Z,35.1
2018-06-05T12:01:04.724Z,35.2
2018-06-05T12:02:12.933Z,35.2
2018-06-05T12:03:20.875Z,34.8
2018-06-05T12:04:28.224Z,35
2018-06-05T12:05:35.463Z,35.3
2018-06-05T12:06:43.679Z,35.3
2018-06-05T12:07:51.892Z,35.1
2018-06-05T12:09:00.105Z,35.4
2018-06-05T12:10:08.322Z,35.3
2018-06-05T12:11:16.538Z,35
2018-06-05T12:12:24.750Z,35.1
2018-06-05T12:13:32.963Z,34.8
2018-06-05T12:14:40.897Z,34.9
2018-06-05T12:15:49.108Z,34.5
2018-06-05T12:16:57.056Z,34.1
2018-06-05T12:18:04.240Z,33.4
2018-06-05T12:19:12.451Z,32.9
2018-06-05T12:20:19.555Z,32.5
2018-06-05T12:21:27.776Z,32.2
2018-06-05T12:22:35.988Z,32.1
2018-06-05T12:23:44.207Z,32.1
2018-06-05T12:24:51.722Z,32
2018-06-05T12:25:59.931Z,31.9
2018-06-05T12:27:08.148Z,31.8
2018-06-05T12:28:16.366Z,31.9
2018-06-05T12:29:24.579Z,32.1
2018-06-05T12:30:32.795Z,32.4
2018-06-05T12:31:41.012Z,32.8
2018-06-05T12:32:48.963Z,33.3
2018-06-05T12:33:57.159Z,33
2018-06-05T12:35:05.377Z,33.2
2018-06-05T12:36:13.310Z,33.6
2018-06-05T12:37:21.525Z,33.7
2018-06-05T12:38:29.757Z,34.2
2018-06-05T12:39:37.973Z,34.7
2018-06-05T12:40:45.915Z,34.7
2018-06-05T12:41:54.136Z,34.1
2018-06-05T12:43:02.349Z,34.2
2018-06-05T12:44:10.290Z,34.4
2018-06-05T12:45:18.502Z,34.4
2018-06-05T12:46:26.724Z,34.3
2018-06-05T12:47:34.937Z,33.1
2018-06-05T12:48:43.149Z,32.6
2018-06-05T12:49:51.093Z,32.7
2018-06-05T12:50:59.303Z,32.9
2018-06-05T12:52:07.243Z,32.7
2018-06-05T12:53:15.455Z,32.8
2018-06-05T12:54:22.709Z,33.3
2018-06-05T12:55:30.919Z,33.3
2018-06-05T12:56:38.192Z,33.5
2018-06-05T12:57:46.402Z,34
2018-06-05T12:58:54.613Z,34.2
2018-06-05T13:00:02.828Z,34.2
2018-06-05T13:01:11.038Z,32.9
2018-06-05T13:02:19.247Z,32.7
2018-06-05T13:03:27.467Z,33.2
2018-06-05T13:04:35.404Z,33
2018-06-05T13:05:43.619Z,32.6
2018-06-05T13:06:51.576Z,33
2018-06-05T13:07:59.794Z,33.4
2018-06-05T13:09:08.008Z,33.6
2018-06-05T13:10:16.240Z,33.3
2018-06-05T13:11:24.454Z,33.5
2018-06-05T13:12:32.671Z,33.7
2018-06-05T13:13:40.886Z,34
2018-06-05T13:14:49.098Z,33.9
2018-06-05T13:15:57.319Z,34.1
2018-06-05T13:17:05.530Z,33
2018-06-05T13:18:13.744Z,33.3
2018-06-05T13:19:21.959Z,33.9
2018-06-05T13:20:29.903Z,34.2
2018-06-05T13:21:38.126Z,33.9
2018-06-05T13:22:46.243Z,34
2018-06-05T13:23:54.799Z,33
2018-06-05T13:25:03.012Z,32.8
2018-06-05T13:26:10.946Z,32.7
2018-06-05T13:27:19.158Z,32.6
2018-06-05T13:28:27.370Z,32.5
2018-06-05T13:29:35.599Z,32.9
2018-06-05T13:30:43.811Z,33.5
2018-06-05T13:31:52.036Z,33.5
2018-06-05T13:33:00.238Z,32.8
2018-06-05T13:34:08.456Z,32.1
2018-06-05T13:35:16.668Z,32.1
2018-06-05T13:36:24.879Z,32.3
2018-06-05T13:37:32.279Z,32.5
2018-06-05T13:38:40.231Z,31.9
2018-06-05T13:39:48.441Z,31.3
2018-06-05T13:40:56.654Z,31.5
2018-06-05T13:42:04.869Z,32.2
2018-06-05T13:43:13.089Z,32.8
2018-06-05T13:44:21.295Z,33.2
2018-06-05T13:45:29.509Z,33.7
2018-06-05T13:46:37.719Z,33.2
2018-06-05T13:47:45.935Z,32.8
2018-06-05T13:48:54.140Z,33
2018-06-05T13:50:02.353Z,33
2018-06-05T13:51:10.297Z,33.2
2018-06-05T13:52:18.614Z,33.2
2018-06-05T13:53:26.817Z,33.3
2018-06-05T13:54:35.032Z,33.4
2018-06-05T13:55:43.240Z,33.7
2018-06-05T13:56:51.455Z,33.9
2018-06-05T13:57:59.121Z,34.1
2018-06-05T13:59:07.332Z,33.2
2018-06-05T14:00:14.938Z,32.8
2018-06-05T14:01:23.159Z,32.8
2018-06-05T14:02:31.375Z,33.3
2018-06-05T14:03:39.587Z,33.7
2018-06-05T14:04:47.800Z,33.1
2018-06-05T14:05:56.009Z,33.1
2018-06-05T14:07:03.253Z,33.1
2018-06-05T14:08:11.465Z,33.4
2018-06-05T14:09:19.932Z,32.8
2018-06-05T14:10:27.954Z,33.2
2018-06-05T14:11:36.167Z,33.6
2018-06-05T14:12:43.405Z,33.9
2018-06-05T14:13:51.618Z,33.8
2018-06-05T14:14:59.556Z,33.6
2018-06-05T14:16:06.805Z,33.1
2018-06-05T14:17:15.014Z,33
2018-06-05T14:18:23.228Z,32.6
2018-06-05T14:19:31.441Z,32.7
2018-06-05T14:20:39.660Z,33
2018-06-05T14:21:47.873Z,32.9
2018-06-05T14:22:56.083Z,32.8
2018-06-05T14:24:04.297Z,33
2018-06-05T14:25:12.519Z,33.1
2018-06-05T14:26:20.459Z,33
2018-06-05T14:27:28.395Z,32.8
2018-06-05T14:28:36.611Z,32.5
2018-06-05T14:29:44.824Z,32.3
2018-06-05T14:30:52.763Z,31.7
2018-06-05T14:32:00.989Z,31.3
2018-06-05T14:33:09.204Z,31.7
2018-06-05T14:34:17.415Z,31.7
2018-06-05T14:35:25.791Z,31.6
2018-06-05T14:36:34.080Z,31.7
2018-06-05T14:37:42.317Z,31.7
2018-06-05T14:38:50.566Z,31.5
2018-06-05T14:39:58.781Z,32.1
2018-06-05T14:41:06.994Z,32.4
2018-06-05T14:42:15.210Z,32.7
2018-06-05T14:43:23.421Z,33.4
2018-06-05T14:44:31.634Z,33.1
2018-06-05T14:45:39.879Z,32.4
2018-06-05T14:46:48.075Z,31.8
2018-06-05T14:47:56.288Z,31.5
2018-06-05T14:49:04.501Z,31.2
2018-06-05T14:50:12.709Z,31.2
2018-06-05T14:51:20.918Z,31.5
2018-06-05T14:52:29.386Z,31.7
2018-06-05T14:53:37.604Z,31.9
2018-06-05T14:54:45.814Z,32.1
2018-06-05T14:55:54.029Z,32.1
2018-06-05T14:57:02.238Z,31.5
2018-06-05T14:58:10.448Z,31.1
2018-06-05T14:59:18.663Z,31.3
2018-06-05T15:00:26.882Z,31.5
2018-06-05T15:01:35.101Z,31.9
2018-06-05T15:02:43.308Z,32.4
2018-06-05T15:03:51.525Z,32.2
2018-06-05T15:04:59.739Z,31.9
2018-06-05T15:06:07.956Z,31.9
2018-06-05T15:07:15.893Z,32.2
2018-06-05T15:08:24.111Z,32.1
2018-06-05T15:09:32.052Z,32.5
2018-06-05T15:10:40.282Z,32.9